Archival Weather

Chicago O'Hare International

Chicago, Illinois (KORD)

Report from: Friday, December 23, 2022 9:51 AM CST
Current time: Monday, June 17, 2024 1:52 AM CDT

Current weather – Weather history – Daily summaries
Weather forecast

Present weatherBlowing snow
Temperature-20.6°C (-5.1°F)
Wind chill-35.5°C (-31.9°F)
Dew point-26.1°C (-15.0°F)
Winds 24 kts (12.3 m/s, 27.6 mph) West (270°)
Wind gusts 37 kts (19 m/s, 42.6 mph)
Peak wind 37 kts (19 m/s, 42.6 mph) West (270°) at 15:45
Visibility3 mi. (4.8 km)
Clouds Ceiling: Broken clouds 2,100 ft. (640 m)
Broken clouds 15,000 ft. (4,572 m)
Altimeter29.84 in.Hg (1010 mB)
Relative humidity61 %
Density altitude-4,522 ft. (-1,378 m)
Sea-level pressure101.3 kPa (1013 mB, 29.90 in.Hg)
Remarks System requires maintenance
Automated weather observing station with precipitation discriminator
Flight conditions Marginal Visual Meteorological Conditions
Raw dataKORD 231551Z 27024G37KT 3SM BLSN BKN021 BKN150 M21/M26 A2984 RMK AO2 PK WND 27037/1545 SLP125 T12061261 $
An error has occurred. This application may no longer respond until reloaded. Reload 🗙